Time;durP1;ratioP1;P1;durP2;ratioP2;P2;SDS_P1;SDS_P2;PMS_P1;PMS_P2;Temp;Humidity;BMP_temperature;BMP_pressure;BME280_temperature;BME280_humidity;BME280_pressure;Samples;Min_cycle;Max_cycle;Signal;HPM_P1;HPM_P2
2023/10/18 00:02:49;;;;;;;;;;;;;;;20.19;48.77;97165.84;611239;232;64944;-66
2023/10/18 00:05:21;;;;;;;;;;;;;;;20.18;48.76;97170.36;611236;232;63513;-66
2023/10/18 00:07:49;;;;;;;;;;;;;;;20.18;48.73;97166.89;611218;232;67388;-66
2023/10/18 00:10:17;;;;;;;;;;;;;;;20.19;48.69;97171.19;611300;232;64857;-66
2023/10/18 00:12:45;;;;;;;;;;;;;;;20.20;48.70;97171.98;611231;232;64525;-66
2023/10/18 00:15:14;;;;;;;;;;;;;;;20.20;48.76;97179.98;611218;232;66705;-66
2023/10/18 00:17:41;;;;;;;;;;;;;;;20.20;48.75;97177.31;611256;232;64603;-66
2023/10/18 00:20:30;;;;;;;;;;;;;;;20.18;48.77;97175.69;611208;232;64968;-66
2023/10/18 00:22:38;;;;;;;;;;;;;;;20.20;48.82;97177.31;609544;232;66886;-66
2023/10/18 00:25:06;;;;;;;;;;;;;;;20.20;48.84;97174.65;611210;232;67217;-66
2023/10/18 00:27:34;;;;;;;;;;;;;;;20.18;48.75;97170.36;611217;232;62790;-66
2023/10/18 00:30:07;;;;;;;;;;;;;;;20.18;48.75;97166.89;611133;232;68023;-66
2023/10/18 00:32:32;;;;;;;;;;;;;;;20.18;48.83;97170.36;611210;230;66843;-66
2023/10/18 00:35:12;;;;;;;;;;;;;;;20.18;48.83;97175.69;611268;232;65354;-66
2023/10/18 00:37:30;;;;;;;;;;;;;;;20.18;48.96;97178.36;611227;231;65034;-66
2023/10/18 00:39:59;;;;;;;;;;;;;;;20.18;48.91;97174.90;611263;232;67257;-66
2023/10/18 00:42:27;;;;;;;;;;;;;;;20.18;48.99;97172.23;611226;232;62342;-66
2023/10/18 00:45:01;;;;;;;;;;;;;;;20.18;48.99;97175.69;611207;232;67228;-66
2023/10/18 00:47:26;;;;;;;;;;;;;;;20.18;48.97;97173.02;611201;231;64649;-66
2023/10/18 00:49:53;;;;;;;;;;;;;;;20.17;48.93;97171.43;607301;232;64580;-66
2023/10/18 00:52:24;;;;;;;;;;;;;;;20.17;49.03;97171.43;602905;235;64764;-66
2023/10/18 00:54:51;;;;;;;;;;;;;;;20.17;49.09;97171.43;602912;235;64816;-66
2023/10/18 00:57:22;;;;;;;;;;;;;;;20.17;49.10;97174.09;602902;235;64797;-66
2023/10/18 00:59:49;;;;;;;;;;;;;;;20.18;49.02;97175.69;602924;235;67138;-66
2023/10/18 01:02:19;;;;;;;;;;;;;;;20.18;49.00;97178.36;602983;235;66797;-66
2023/10/18 01:04:52;;;;;;;;;;;;;;;20.18;49.02;97182.90;602903;235;62375;-66
2023/10/18 01:07:16;;;;;;;;;;;;;;;20.17;49.12;97176.77;602748;235;65038;-66
2023/10/18 01:09:47;;;;;;;;;;;;;;;20.17;49.34;97174.09;602907;235;67356;-66
2023/10/18 01:12:14;;;;;;;;;;;;;;;20.18;49.24;97169.56;602883;233;65304;-66
2023/10/18 01:14:45;;;;;;;;;;;;;;;20.18;49.11;97172.23;602964;235;67315;-66
2023/10/18 01:17:15;;;;;;;;;;;;;;;20.17;49.20;97162.62;602954;235;64768;-65
2023/10/18 01:19:43;;;;;;;;;;;;;;;20.17;49.19;97168.77;602894;235;64811;-65
2023/10/18 01:22:11;;;;;;;;;;;;;;;20.17;49.16;97179.44;602912;235;67069;-65
2023/10/18 01:24:39;;;;;;;;;;;;;;;20.16;49.46;97177.02;602924;235;64749;-65
2023/10/18 01:27:08;;;;;;;;;;;;;;;20.16;49.09;97175.17;602935;235;64889;-65
2023/10/18 01:29:38;;;;;;;;;;;;;;;20.17;49.00;97168.77;602952;235;64525;-66
2023/10/18 01:32:05;;;;;;;;;;;;;;;20.16;49.28;97167.17;602895;235;64737;-66
2023/10/18 01:34:32;;;;;;;;;;;;;;;20.16;50.27;97167.17;602881;235;62812;-65
2023/10/18 01:37:00;;;;;;;;;;;;;;;20.17;50.15;97162.62;602913;235;65071;-65
2023/10/18 01:39:31;;;;;;;;;;;;;;;20.17;49.88;97167.97;602914;235;67260;-65
2023/10/18 01:41:59;;;;;;;;;;;;;;;20.16;49.59;97167.17;602983;235;65033;-65
2023/10/18 01:44:33;;;;;;;;;;;;;;;20.16;49.48;97171.68;602885;235;65054;-66
2023/10/18 01:47:08;;;;;;;;;;;;;;;20.16;49.67;97177.02;602893;235;67045;-66
2023/10/18 01:49:46;;;;;;;;;;;;;;;20.16;49.79;97177.84;605967;232;62362;-65
2023/10/18 01:52:19;;;;;;;;;;;;;;;20.16;49.80;97185.84;611231;232;64508;-65
2023/10/18 01:54:44;;;;;;;;;;;;;;;20.15;49.95;97186.89;610954;232;67349;-65
2023/10/18 01:57:12;;;;;;;;;;;;;;;20.15;49.53;97192.23;611272;232;62506;-66
2023/10/18 01:59:39;;;;;;;;;;;;;;;20.16;49.53;97195.69;611219;232;67154;-66
2023/10/18 02:02:10;;;;;;;;;;;;;;;20.15;49.55;97200.23;611212;232;64683;-66
2023/10/18 02:04:45;;;;;;;;;;;;;;;20.15;49.90;97199.44;611185;231;64975;-66
2023/10/18 02:07:07;;;;;;;;;;;;;;;20.15;49.96;97191.43;610614;232;64923;-65
2023/10/18 02:09:48;;;;;;;;;;;;;;;20.15;49.64;97186.09;611257;232;64688;-66
2023/10/18 02:12:18;;;;;;;;;;;;;;;20.14;49.55;97190.64;611215;230;65714;-65
2023/10/18 02:14:44;;;;;;;;;;;;;;;20.15;49.46;97183.43;611117;231;67283;-65
2023/10/18 02:17:11;;;;;;;;;;;;;;;20.14;49.43;97190.64;611233;232;66769;-65
2023/10/18 02:19:39;;;;;;;;;;;;;;;20.14;49.65;97190.64;611152;232;64672;-65
2023/10/18 02:22:10;;;;;;;;;;;;;;;20.14;49.71;97185.30;611218;232;66930;-65
2023/10/18 02:24:38;;;;;;;;;;;;;;;20.14;49.61;97189.84;611197;232;68091;-66
2023/10/18 02:27:09;;;;;;;;;;;;;;;20.14;49.83;97185.30;611220;232;64760;-66
2023/10/18 02:29:35;;;;;;;;;;;;;;;20.14;50.08;97195.17;611168;231;68051;-66
2023/10/18 02:32:05;;;;;;;;;;;;;;;20.13;50.42;97178.37;611208;232;65033;-66
2023/10/18 02:34:38;;;;;;;;;;;;;;;20.14;50.39;97177.30;609743;229;62349;-66
2023/10/18 02:37:05;;;;;;;;;;;;;;;20.14;49.84;97184.50;604450;232;67680;-66
2023/10/18 02:39:36;;;;;;;;;;;;;;;20.14;50.23;97184.50;604404;235;67006;-66
2023/10/18 02:42:04;;;;;;;;;;;;;;;20.13;50.93;97175.70;604453;235;65285;-65
2023/10/18 02:44:35;;;;;;;;;;;;;;;20.13;50.82;97173.03;604454;235;64162;-65
2023/10/18 02:47:16;;;;;;;;;;;;;;;20.13;50.35;97173.03;604415;235;66727;-66
2023/10/18 02:49:34;;;;;;;;;;;;;;;20.13;51.44;97166.88;602891;235;65221;-66
2023/10/18 02:52:03;;;;;;;;;;;;;;;20.13;51.87;97167.70;602087;235;64808;-66
2023/10/18 02:54:32;;;;;;;;;;;;;;;20.12;51.79;97171.41;602074;235;67415;-66
2023/10/18 02:57:01;;;;;;;;;;;;;;;20.12;51.52;97168.74;602090;235;64898;-66
2023/10/18 02:59:29;;;;;;;;;;;;;;;20.12;51.83;97162.61;602289;234;65253;-66
2023/10/18 03:01:57;;;;;;;;;;;;;;;20.12;51.55;97166.07;602394;235;66905;-65
2023/10/18 03:04:27;;;;;;;;;;;;;;;20.12;51.74;97167.94;602392;235;62442;-65
2023/10/18 03:06:54;;;;;;;;;;;;;;;20.13;49.85;97174.88;601977;234;68303;-65
2023/10/18 03:09:38;;;;;;;;;;;;;;;20.12;49.62;97168.74;602249;235;66910;-65
2023/10/18 03:11:58;;;;;;;;;;;;;;;20.13;49.50;97164.20;602097;235;63649;-64
2023/10/18 03:14:48;;;;;;;;;;;;;;;20.13;49.42;97159.69;602321;235;67323;-65
2023/10/18 03:17:28;;;;;;;;;;;;;;;20.13;49.49;97156.20;601368;235;64642;-65
2023/10/18 03:19:56;;;;;;;;;;;;;;;20.12;49.66;97160.73;602177;235;64646;-65
2023/10/18 03:22:26;;;;;;;;;;;;;;;20.12;50.97;97160.73;602436;233;67181;-65
2023/10/18 03:24:54;;;;;;;;;;;;;;;20.12;50.94;97155.40;602513;235;69100;-64
2023/10/18 03:27:22;;;;;;;;;;;;;;;20.12;53.28;97157.27;602391;235;62387;-65
2023/10/18 03:29:56;;;;;;;;;;;;;;;20.11;53.18;97153.01;602395;235;67182;-65
2023/10/18 03:32:19;;;;;;;;;;;;;;;20.11;53.03;97153.01;602158;234;66717;-65
2023/10/18 03:34:46;;;;;;;;;;;;;;;20.10;52.32;97141.52;602491;235;62431;-65
2023/10/18 03:37:33;;;;;;;;;;;;;;;20.10;53.14;97141.52;602413;235;64593;-65
2023/10/18 03:39:48;;;;;;;;;;;;;;;20.10;52.57;97138.84;600959;234;68113;-65
2023/10/18 03:42:37;;;;;;;;;;;;;;;20.10;54.58;97130.05;602456;234;64810;-65
2023/10/18 03:44:46;;;;;;;;;;;;;;;20.09;54.50;97131.12;601425;233;64887;-66
2023/10/18 03:47:24;;;;;;;;;;;;;;;20.09;53.28;97131.91;602118;235;67576;-66
2023/10/18 03:49:44;;;;;;;;;;;;;;;20.10;53.34;97124.70;601607;234;62297;-66
2023/10/18 03:54:45;;;;;;;;;;;;;;;20.09;53.20;97131.91;602410;234;64925;-66
2023/10/18 03:57:16;;;;;;;;;;;;;;;20.09;53.79;97131.91;602473;235;62552;-66
2023/10/18 03:59:48;;;;;;;;;;;;;;;20.08;53.96;97132.98;602322;235;64794;-65
2023/10/18 04:02:26;;;;;;;;;;;;;;;20.08;53.75;97127.66;602781;235;67031;-66
2023/10/18 04:04:47;;;;;;;;;;;;;;;20.08;54.66;97127.66;601324;235;64695;-66
2023/10/18 04:07:20;;;;;;;;;;;;;;;20.08;52.98;97134.83;602253;235;67036;-65
2023/10/18 04:10:06;;;;;;;;;;;;;;;20.08;53.85;97138.33;602280;235;64749;-66
2023/10/18 04:12:23;;;;;;;;;;;;;;;20.08;53.33;97124.98;601671;235;62381;-65
2023/10/18 04:14:59;;;;;;;;;;;;;;;20.08;54.32;97127.66;602369;235;67175;-66
2023/10/18 04:17:36;;;;;;;;;;;;;;;20.07;54.68;97123.36;602257;235;64921;-66
2023/10/18 04:20:22;;;;;;;;;;;;;;;20.08;54.13;97114.31;602365;234;64382;-65
2023/10/18 04:22:46;;;;;;;;;;;;;;;20.08;53.67;97110.81;602040;234;67386;-65
2023/10/18 04:25:26;;;;;;;;;;;;;;;20.08;55.10;97108.16;602356;235;67077;-65
2023/10/18 04:28:02;;;;;;;;;;;;;;;20.06;54.19;97116.44;602178;235;64583;-65
2023/10/18 04:30:30;;;;;;;;;;;;;;;20.07;53.43;97115.36;602194;234;67114;-66
2023/10/18 04:35:52;;;;;;;;;;;;;;;20.07;53.63;97109.23;602411;235;64847;-66
2023/10/18 04:38:36;;;;;;;;;;;;;;;20.07;54.94;97120.70;601983;234;65457;-67
2023/10/18 04:40:43;;;;;;;;;;;;;;;20.07;53.56;97123.36;599522;235;64808;-67
2023/10/18 04:43:10;;;;;;;;;;;;;;;20.07;53.82;97118.03;602313;233;62604;-65
2023/10/18 04:45:38;;;;;;;;;;;;;;;20.06;52.25;97119.10;602299;233;67009;-65
2023/10/18 04:48:14;;;;;;;;;;;;;;;20.06;54.57;97119.10;602288;235;66697;-65
2023/10/18 04:50:39;;;;;;;;;;;;;;;20.06;53.83;97119.10;602221;233;64595;-66
2023/10/18 04:53:14;;;;;;;;;;;;;;;20.06;54.10;97120.97;602322;235;67362;-65
2023/10/18 04:55:41;;;;;;;;;;;;;;;20.06;53.09;97119.10;602455;235;67374;-64
2023/10/18 04:58:11;;;;;;;;;;;;;;;20.06;54.13;97128.98;601782;234;62202;-65
2023/10/18 05:00:52;;;;;;;;;;;;;;;20.06;53.74;97129.77;602412;235;64689;-65
2023/10/18 05:03:13;;;;;;;;;;;;;;;20.06;54.26;97136.98;601390;234;66956;-65
2023/10/18 05:05:38;;;;;;;;;;;;;;;20.06;54.65;97137.78;602019;235;62356;-65
2023/10/18 05:08:06;;;;;;;;;;;;;;;20.06;53.91;97148.45;601959;234;64857;-65
2023/10/18 05:10:34;;;;;;;;;;;;;;;20.06;54.50;97150.32;602344;234;67019;-65
2023/10/18 05:13:07;;;;;;;;;;;;;;;20.05;53.65;97152.19;602381;235;62379;-65
2023/10/18 05:15:36;;;;;;;;;;;;;;;20.06;53.58;97159.13;602396;233;64522;-65
2023/10/18 05:18:15;;;;;;;;;;;;;;;20.05;53.96;97170.87;602184;234;64511;-66
2023/10/18 05:20:46;;;;;;;;;;;;;;;20.06;55.16;97179.67;601538;235;64726;-65
2023/10/18 05:23:19;;;;;;;;;;;;;;;20.05;55.00;97178.87;602270;233;65959;-65
2023/10/18 05:25:45;;;;;;;;;;;;;;;20.04;54.75;97179.91;601976;234;64620;-65
2023/10/18 05:28:14;;;;;;;;;;;;;;;20.05;53.36;97184.20;602173;235;62521;-66
2023/10/18 05:36:55;;;;;;;;;;;;;;;20.04;53.40;97193.25;602461;234;62427;-65
2023/10/18 05:44:02;;;;;;;;;;;;;;;20.05;54.44;97202.05;602261;235;65148;-65
2023/10/18 05:46:34;;;;;;;;;;;;;;;20.04;53.11;97197.79;602375;235;67047;-65
2023/10/18 05:49:01;;;;;;;;;;;;;;;20.04;55.01;97217.27;601446;234;66951;-66
2023/10/18 05:51:37;;;;;;;;;;;;;;;20.03;55.69;97210.33;597496;237;64933;-65
2023/10/18 05:53:59;;;;;;;;;;;;;;;20.02;54.76;97208.70;596380;235;64895;-65
2023/10/18 05:56:32;;;;;;;;;;;;;;;20.03;55.62;97218.34;596257;238;65767;-65
2023/10/18 06:01:43;;;;;;;;;;;;;;;20.04;54.76;97232.47;596299;235;67246;-65
2023/10/18 06:04:13;;;;;;;;;;;;;;;20.04;53.97;97227.14;596360;238;64567;-65
2023/10/18 06:06:39;;;;;;;;;;;;;;;20.04;54.71;97238.61;596257;238;64440;-65
2023/10/18 06:09:11;;;;;;;;;;;;;;;20.03;54.34;97242.34;596257;238;67136;-65
2023/10/18 06:11:38;;;;;;;;;;;;;;;20.03;53.94;97247.68;596273;238;67203;-66
2023/10/18 06:14:08;;;;;;;;;;;;;;;20.02;54.31;97248.72;596213;238;65093;-67
2023/10/18 06:16:35;;;;;;;;;;;;;;;20.04;54.49;97245.81;596183;238;64618;-66
2023/10/18 06:19:08;;;;;;;;;;;;;;;20.03;54.91;97250.34;598738;234;65827;-67
2023/10/18 06:21:57;;;;;;;;;;;;;;;20.03;55.37;97247.68;602620;235;64913;-67
2023/10/18 06:24:10;;;;;;;;;;;;;;;20.02;55.16;97251.39;602294;235;67056;-67
2023/10/18 06:26:33;;;;;;;;;;;;;;;20.01;55.21;97249.80;602342;235;66927;-67
2023/10/18 06:29:01;;;;;;;;;;;;;;;20.01;55.65;97244.46;602609;235;62677;-67
2023/10/18 06:31:30;;;;;;;;;;;;;;;20.01;56.86;97255.13;602696;235;64628;-67
2023/10/18 06:34:04;;;;;;;;;;;;;;;20.01;56.21;97255.13;602472;235;67239;-67
2023/10/18 06:36:38;;;;;;;;;;;;;;;20.00;56.18;97248.20;602617;235;64759;-67
2023/10/18 06:38:59;;;;;;;;;;;;;;;19.98;55.37;97247.65;602357;235;67233;-68
2023/10/18 06:41:30;;;;;;;;;;;;;;;20.00;55.50;97252.70;602666;235;64833;-68
2023/10/18 06:43:58;;;;;;;;;;;;;;;19.99;56.23;97240.45;602762;235;62468;-65
2023/10/18 06:46:26;;;;;;;;;;;;;;;19.98;55.77;97234.31;602553;235;67010;-66
2023/10/18 06:48:58;;;;;;;;;;;;;;;19.98;55.82;97230.84;602717;233;64874;-66
2023/10/18 06:51:33;;;;;;;;;;;;;;;19.98;54.96;97228.18;608059;233;64656;-66
2023/10/18 06:54:03;;;;;;;;;;;;;;;19.96;53.80;97220.42;608117;233;64423;-66
2023/10/18 06:56:39;;;;;;;;;;;;;;;19.97;55.02;97222.05;608122;233;64875;-65
2023/10/18 06:59:07;;;;;;;;;;;;;;;19.97;55.00;97219.37;607885;233;64650;-66
2023/10/18 07:02:26;;;;;;;;;;;;;;;19.98;54.43;97218.30;608077;233;67539;-67
2023/10/18 07:04:08;;;;;;;;;;;;;;;19.98;52.42;97223.64;604170;233;64734;-66
2023/10/18 07:06:35;;;;;;;;;;;;;;;19.99;55.20;97222.56;608090;233;64690;-66
2023/10/18 07:09:16;;;;;;;;;;;;;;;20.00;55.91;97226.03;608149;233;64362;-66
2023/10/18 07:11:32;;;;;;;;;;;;;;;19.99;54.88;97229.77;607959;233;66816;-66
2023/10/18 07:14:00;;;;;;;;;;;;;;;19.99;53.48;97230.57;607810;233;64586;-66
2023/10/18 07:21:48;;;;;;;;;;;;;;;20.00;54.15;97210.86;607822;233;62802;-67
2023/10/18 07:24:17;;;;;;;;;;;;;;;20.00;55.25;97215.36;607754;233;64880;-67
2023/10/18 07:26:48;;;;;;;;;;;;;;;20.00;55.05;97221.53;608156;233;67376;-66
2023/10/18 07:29:15;;;;;;;;;;;;;;;20.00;53.96;97223.37;608035;233;63964;-66
2023/10/18 07:31:46;;;;;;;;;;;;;;;20.01;54.40;97217.78;607856;233;65142;-67
2023/10/18 07:34:31;;;;;;;;;;;;;;;20.01;54.33;97222.32;608021;233;64721;-67
2023/10/18 07:36:59;;;;;;;;;;;;;;;20.01;53.66;97227.66;607538;233;63416;-67
2023/10/18 07:39:26;;;;;;;;;;;;;;;20.00;53.51;97216.19;608129;233;64875;-67
2023/10/18 07:41:55;;;;;;;;;;;;;;;20.01;53.49;97216.98;608035;233;64985;-67
2023/10/18 07:44:23;;;;;;;;;;;;;;;20.01;55.54;97212.45;608095;233;64678;-67
2023/10/18 07:46:50;;;;;;;;;;;;;;;20.01;55.04;97212.45;607831;233;64578;-67
2023/10/18 07:49:18;;;;;;;;;;;;;;;20.03;55.14;97213.00;607567;233;66855;-67
2023/10/18 07:51:49;;;;;;;;;;;;;;;20.01;52.99;97215.12;608045;233;62458;-67
2023/10/18 07:54:17;;;;;;;;;;;;;;;20.02;54.08;97206.05;607674;233;67272;-67
2023/10/18 07:56:54;;;;;;;;;;;;;;;20.02;54.03;97208.70;607390;233;67145;-67
2023/10/18 07:59:42;;;;;;;;;;;;;;;20.02;53.91;97203.37;608090;233;66392;-67
2023/10/18 08:02:12;;;;;;;;;;;;;;;20.02;52.70;97197.24;607660;233;67094;-66
2023/10/18 08:04:40;;;;;;;;;;;;;;;20.02;52.74;97198.04;608037;233;70783;-66
2023/10/18 08:07:15;;;;;;;;;;;;;;;20.05;54.31;97200.21;607762;233;64772;-66
2023/10/18 08:09:42;;;;;;;;;;;;;;;20.07;52.68;97192.73;608045;233;66959;-67
2023/10/18 08:12:33;;;;;;;;;;;;;;;20.06;53.10;97196.47;607703;233;66906;-67
2023/10/18 08:14:40;;;;;;;;;;;;;;;20.06;53.15;97204.47;606226;232;64493;-65
2023/10/18 08:17:22;;;;;;;;;;;;;;;20.05;54.02;97202.88;608028;233;67102;-65
2023/10/18 08:19:47;;;;;;;;;;;;;;;20.04;52.88;97201.26;607498;233;64786;-66
2023/10/18 08:24:49;;;;;;;;;;;;;;;20.03;53.61;97205.00;608175;233;64812;-66
2023/10/18 08:27:13;;;;;;;;;;;;;;;20.03;53.06;97205.00;607961;233;66726;-66
2023/10/18 08:29:41;;;;;;;;;;;;;;;20.03;52.95;97198.86;608008;233;64595;-66
2023/10/18 08:32:16;;;;;;;;;;;;;;;20.02;52.84;97200.70;607934;233;67394;-66
2023/10/18 08:34:45;;;;;;;;;;;;;;;20.02;53.09;97200.70;607415;233;66783;-66
2023/10/18 08:37:15;;;;;;;;;;;;;;;20.03;52.79;97201.53;607786;233;64617;-66
2023/10/18 08:39:53;;;;;;;;;;;;;;;20.02;52.72;97198.04;608118;233;67072;-66
2023/10/18 08:42:22;;;;;;;;;;;;;;;20.02;53.20;97197.24;607936;233;67211;-64
2023/10/18 08:44:55;;;;;;;;;;;;;;;20.03;52.98;97201.53;607839;233;64755;-65
2023/10/18 08:47:31;;;;;;;;;;;;;;;20.03;53.54;97210.33;599801;235;68298;-65
2023/10/18 08:49:56;;;;;;;;;;;;;;;20.03;52.72;97209.53;601770;232;64589;-64
2023/10/18 08:52:24;;;;;;;;;;;;;;;20.02;52.84;97206.05;603783;232;64771;-65
2023/10/18 08:54:52;;;;;;;;;;;;;;;20.01;52.04;97204.45;602842;235;64994;-63
2023/10/18 08:57:35;;;;;;;;;;;;;;;20.02;52.35;97210.58;602883;235;67085;-64
2023/10/18 09:02:50;;;;;;;;;;;;;;;20.01;53.13;97207.11;602780;232;64611;-64
2023/10/18 09:05:22;;;;;;;;;;;;;;;20.00;53.95;97202.85;602906;235;66888;-65
2023/10/18 09:07:51;;;;;;;;;;;;;;;19.99;53.27;97203.89;602790;235;64623;-64
2023/10/18 09:10:46;;;;;;;;;;;;;;;19.99;53.81;97201.23;602858;235;65056;-65
2023/10/18 09:18:25;;;;;;;;;;;;;;;19.99;52.18;97205.77;600227;235;67094;-64
2023/10/18 09:21:02;;;;;;;;;;;;;;;19.99;52.53;97201.23;602848;235;64920;-64
2023/10/18 09:23:29;;;;;;;;;;;;;;;19.99;52.90;97200.43;602850;233;64739;-65
2023/10/18 09:28:36;;;;;;;;;;;;;;;20.00;54.44;97212.70;602907;235;67228;-66
2023/10/18 09:31:12;;;;;;;;;;;;;;;20.00;53.95;97205.52;602740;235;64568;-68
2023/10/18 09:33:48;;;;;;;;;;;;;;;19.99;53.30;97209.23;602803;235;67183;-65
2023/10/18 09:36:25;;;;;;;;;;;;;;;20.00;54.65;97204.69;602822;233;67072;-66
2023/10/18 09:38:54;;;;;;;;;;;;;;;20.00;53.54;97204.69;602802;235;64894;-67
2023/10/18 09:41:22;;;;;;;;;;;;;;;20.00;52.84;97199.36;602820;235;65086;-65
2023/10/18 09:43:49;;;;;;;;;;;;;;;20.02;52.42;97199.91;602859;235;67054;-65
2023/10/18 09:46:18;;;;;;;;;;;;;;;20.01;54.83;97191.11;602867;235;64810;-66
2023/10/18 09:48:46;;;;;;;;;;;;;;;20.00;49.79;97197.52;602895;232;67261;-65
2023/10/18 09:51:15;;;;;;;;;;;;;;;20.02;52.72;97195.38;611196;231;64577;-63
2023/10/18 09:53:44;;;;;;;;;;;;;;;20.03;53.52;97197.00;611146;232;64818;-65
2023/10/18 09:56:15;;;;;;;;;;;;;;;20.03;54.13;97193.53;611152;232;64826;-65
2023/10/18 09:58:46;;;;;;;;;;;;;;;20.03;54.58;97191.66;611087;232;64813;-65
2023/10/18 10:01:14;;;;;;;;;;;;;;;20.02;55.10;97182.03;611166;232;64740;-66
2023/10/18 10:03:50;;;;;;;;;;;;;;;20.01;54.47;97182.31;611167;232;64707;-65
2023/10/18 10:06:14;;;;;;;;;;;;;;;20.01;54.18;97175.10;611105;230;66940;-66
2023/10/18 10:08:42;;;;;;;;;;;;;;;20.01;53.80;97169.77;611136;232;62703;-66
2023/10/18 10:11:13;;;;;;;;;;;;;;;20.02;54.37;97166.02;611154;232;67256;-66
2023/10/18 10:13:42;;;;;;;;;;;;;;;20.01;54.00;97160.97;611097;232;67218;-66
2023/10/18 10:16:13;;;;;;;;;;;;;;;20.02;54.48;97154.56;611191;232;63441;-65
2023/10/18 10:18:43;;;;;;;;;;;;;;;20.02;53.21;97154.56;611100;232;65579;-67
2023/10/18 10:21:12;;;;;;;;;;;;;;;20.02;52.77;97146.55;611082;232;65472;-65
2023/10/18 10:23:39;;;;;;;;;;;;;;;20.02;54.05;97152.69;611144;232;62483;-64
2023/10/18 10:26:22;;;;;;;;;;;;;;;20.02;53.55;97141.22;611182;232;65197;-65
2023/10/18 10:31:56;;;;;;;;;;;;;;;20.03;54.14;97129.50;611172;232;62426;-64
2023/10/18 10:34:24;;;;;;;;;;;;;;;20.02;54.04;97126.01;610504;232;64673;-67
2023/10/18 10:36:50;;;;;;;;;;;;;;;20.01;53.62;97119.08;611075;230;64951;-66
2023/10/18 10:39:30;;;;;;;;;;;;;;;20.02;53.40;97119.87;611188;232;64888;-67
2023/10/18 10:42:00;;;;;;;;;;;;;;;20.01;54.72;97119.08;611051;230;67080;-67
2023/10/18 10:44:30;;;;;;;;;;;;;;;20.01;53.49;97118.28;611164;232;67028;-67
2023/10/18 10:46:55;;;;;;;;;;;;;;;20.00;54.85;97114.82;611097;231;64558;-67
2023/10/18 10:49:41;;;;;;;;;;;;;;;20.00;54.17;97114.00;609608;232;67100;-67
2023/10/18 10:52:10;;;;;;;;;;;;;;;20.00;54.43;97106.82;608783;232;64831;-67
2023/10/18 10:54:39;;;;;;;;;;;;;;;20.00;54.25;97109.48;608912;232;62698;-67
2023/10/18 10:57:12;;;;;;;;;;;;;;;20.01;54.43;97110.28;608918;232;67146;-67
2023/10/18 10:59:41;;;;;;;;;;;;;;;20.00;53.54;97098.81;609045;232;67096;-67
2023/10/18 11:02:09;;;;;;;;;;;;;;;20.01;54.50;97099.61;608423;232;62607;-68
2023/10/18 11:04:49;;;;;;;;;;;;;;;20.00;54.20;97098.81;608755;232;67097;-67
2023/10/18 11:07:21;;;;;;;;;;;;;;;20.00;54.27;97093.48;609280;232;66398;-68
2023/10/18 11:09:47;;;;;;;;;;;;;;;19.99;54.40;97086.52;609234;232;64592;-66
2023/10/18 11:12:15;;;;;;;;;;;;;;;20.00;54.19;97084.66;609128;232;66977;-65
2023/10/18 11:14:42;;;;;;;;;;;;;;;20.00;54.15;97081.98;608958;232;66945;-67
2023/10/18 11:20:18;;;;;;;;;;;;;;;20.05;48.93;97069.48;609018;232;64349;-67
2023/10/18 11:22:22;;;;;;;;;;;;;;;20.05;51.53;97074.83;607893;233;64359;-67
2023/10/18 11:24:52;;;;;;;;;;;;;;;20.04;52.80;97073.20;608994;232;62338;-66
2023/10/18 11:27:33;;;;;;;;;;;;;;;20.03;53.99;97065.48;606357;229;66757;-68
2023/10/18 11:30:14;;;;;;;;;;;;;;;20.02;54.69;97069.98;603697;232;67953;-67
2023/10/18 11:32:28;;;;;;;;;;;;;;;20.01;54.14;97076.40;607009;229;64562;-66
2023/10/18 11:35:02;;;;;;;;;;;;;;;20.03;49.15;97076.15;607039;229;66667;-67
2023/10/18 11:37:37;;;;;;;;;;;;;;;20.05;48.45;97068.66;608434;232;66889;-65
2023/10/18 11:40:15;;;;;;;;;;;;;;;20.08;48.91;97062.80;608456;232;64576;-66
2023/10/18 11:43:05;;;;;;;;;;;;;;;20.08;49.08;97068.13;607282;233;67480;-65
2023/10/18 11:45:27;;;;;;;;;;;;;;;20.08;48.88;97060.95;603928;229;64734;-66
2023/10/18 11:47:54;;;;;;;;;;;;;;;20.08;48.67;97063.62;605631;232;62473;-66
2023/10/18 11:50:23;;;;;;;;;;;;;;;20.10;48.90;97068.68;602463;233;64672;-67
2023/10/18 11:52:52;;;;;;;;;;;;;;;20.10;51.84;97072.14;601963;234;64667;-66
2023/10/18 11:55:20;;;;;;;;;;;;;;;20.11;52.78;97067.64;602223;235;64750;-66
2023/10/18 11:57:48;;;;;;;;;;;;;;;20.10;54.27;97066.02;603422;229;64980;-65
2023/10/18 12:02:55;;;;;;;;;;;;;;;20.08;54.15;97063.62;604410;229;64853;-67
2023/10/18 12:05:29;;;;;;;;;;;;;;;20.08;50.86;97063.62;606861;229;67155;-65
2023/10/18 12:08:05;;;;;;;;;;;;;;;20.09;49.80;97059.87;604910;233;63896;-67
2023/10/18 12:10:34;;;;;;;;;;;;;;;20.11;50.65;97056.96;605213;229;64605;-67
2023/10/18 12:13:06;;;;;;;;;;;;;;;20.11;54.49;97064.97;608757;230;67309;-66
2023/10/18 12:15:31;;;;;;;;;;;;;;;20.10;53.79;97061.47;608634;232;66877;-63
2023/10/18 12:18:03;;;;;;;;;;;;;;;20.10;53.34;97052.67;608671;232;65904;-65
2023/10/18 12:20:35;;;;;;;;;;;;;;;20.10;54.04;97045.47;608933;231;67157;-66
2023/10/18 12:22:57;;;;;;;;;;;;;;;20.10;54.07;97053.47;608963;231;66978;-65
2023/10/18 12:25:27;;;;;;;;;;;;;;;20.10;53.20;97048.12;609178;232;64601;-65
2023/10/18 12:27:55;;;;;;;;;;;;;;;20.11;54.71;97049.75;609483;231;64588;-65
2023/10/18 12:30:34;;;;;;;;;;;;;;;20.10;54.71;97042.80;608967;232;67354;-65
2023/10/18 12:32:58;;;;;;;;;;;;;;;20.11;54.14;97048.95;609040;231;64808;-66
2023/10/18 12:35:28;;;;;;;;;;;;;;;20.11;53.37;97047.09;609150;232;64776;-67
2023/10/18 12:37:54;;;;;;;;;;;;;;;20.11;54.15;97039.08;608847;231;66749;-67
2023/10/18 12:40:28;;;;;;;;;;;;;;;20.11;55.36;97041.75;608972;232;62313;-66
2023/10/18 12:43:00;;;;;;;;;;;;;;;20.11;53.94;97039.08;608873;232;70084;-64
2023/10/18 12:45:28;;;;;;;;;;;;;;;20.11;54.06;97041.75;608170;229;67001;-66
2023/10/18 12:47:55;;;;;;;;;;;;;;;20.11;53.73;97046.29;607668;229;64616;-66
2023/10/18 12:50:27;;;;;;;;;;;;;;;20.11;54.31;97049.75;599634;230;64289;-67
2023/10/18 12:52:53;;;;;;;;;;;;;;;20.12;54.31;97048.67;598915;232;69119;-67
2023/10/18 12:55:33;;;;;;;;;;;;;;;20.11;54.46;97041.75;602629;232;64858;-67
2023/10/18 12:58:00;;;;;;;;;;;;;;;20.11;53.16;97049.75;602836;235;64993;-68
2023/10/18 13:00:35;;;;;;;;;;;;;;;20.11;53.72;97057.76;602716;235;67265;-67
2023/10/18 13:05:44;;;;;;;;;;;;;;;20.11;56.03;97055.09;602847;235;67897;-68
2023/10/18 13:08:22;;;;;;;;;;;;;;;20.09;56.16;97043.87;602914;235;68051;-67
2023/10/18 13:13:19;;;;;;;;;;;;;;;20.09;55.86;97053.75;594107;235;67089;-67
2023/10/18 13:15:47;;;;;;;;;;;;;;;20.08;56.06;97052.95;602856;235;67183;-67
2023/10/18 13:18:14;;;;;;;;;;;;;;;20.08;56.04;97052.13;602781;235;62723;-66
2023/10/18 13:20:49;;;;;;;;;;;;;;;20.08;55.76;97049.45;602884;235;65035;-67
2023/10/18 13:23:18;;;;;;;;;;;;;;;20.08;56.01;97052.13;602600;233;67102;-67
2023/10/18 13:25:55;;;;;;;;;;;;;;;20.08;55.53;97054.80;602573;235;64501;-67
2023/10/18 13:28:59;;;;;;;;;;;;;;;20.08;55.74;97057.47;602613;235;67112;-66
2023/10/18 13:30:55;;;;;;;;;;;;;;;20.07;55.73;97051.33;600535;235;66938;-66
2023/10/18 13:33:22;;;;;;;;;;;;;;;20.09;55.92;97048.41;602829;235;64624;-66
2023/10/18 13:35:50;;;;;;;;;;;;;;;20.08;55.71;97050.28;602908;235;65648;-66
2023/10/18 13:38:19;;;;;;;;;;;;;;;20.07;56.23;97045.99;602863;235;64475;-66
2023/10/18 13:40:46;;;;;;;;;;;;;;;20.08;55.72;97046.80;602834;235;64614;-66
2023/10/18 13:43:14;;;;;;;;;;;;;;;20.08;55.95;97052.95;602851;235;64579;-69
2023/10/18 13:45:42;;;;;;;;;;;;;;;20.08;55.94;97046.80;602785;235;65026;-67
2023/10/18 13:48:11;;;;;;;;;;;;;;;20.07;55.79;97040.66;602793;235;64708;-65
2023/10/18 13:50:38;;;;;;;;;;;;;;;20.08;55.37;97047.62;609428;232;64893;-67
2023/10/18 13:53:10;;;;;;;;;;;;;;;20.09;55.45;97038.53;611080;232;66996;-65
2023/10/18 13:55:37;;;;;;;;;;;;;;;20.09;55.47;97038.53;611104;232;64831;-65